Time;durP1;ratioP1;P1;durP2;ratioP2;P2;SDS_P1;SDS_P2;PMS_P1;PMS_P2;Temp;Humidity;BMP_temperature;BMP_pressure;BME280_temperature;BME280_humidity;BME280_pressure;Samples;Min_cycle;Max_cycle;Signal;HPM_P1;HPM_P2
2022/12/04 00:01:10;;;;;;;92.88;47.30;;;;;;;-0.30;100.00;66750.19;4976867;28;20066;-85
2022/12/04 00:03:36;;;;;;;94.15;43.08;;;;;;;-0.31;100.00;66751.13;4968357;28;20077;-85
2022/12/04 00:06:13;;;;;;;93.32;53.75;;;;;;;-0.33;100.00;66748.88;4969790;28;20517;-85
2022/12/04 00:08:40;;;;;;;94.07;48.92;;;;;;;-0.30;100.00;66747.56;4964750;28;20119;-85
2022/12/04 00:11:07;;;;;;;88.47;44.10;;;;;;;-0.30;100.00;66747.56;4969235;28;20073;-85
2022/12/04 00:13:34;;;;;;;92.32;51.88;;;;;;;-0.32;100.00;66747.38;4966357;28;20049;-85
2022/12/04 00:15:59;;;;;;;93.82;49.80;;;;;;;-0.30;100.00;66741.78;4970750;28;20069;-85
2022/12/04 00:18:26;;;;;;;97.80;50.60;;;;;;;-0.30;100.00;66747.00;4974849;28;20221;-85
2022/12/04 00:20:51;;;;;;;90.88;44.33;;;;;;;-0.33;100.00;66744.19;4970439;28;20065;-85
2022/12/04 00:23:16;;;;;;;94.78;44.63;;;;;;;-0.29;100.00;66750.75;4969375;28;20486;-85
2022/12/04 00:25:47;;;;;;;98.75;53.17;;;;;;;-0.30;100.00;66747.56;4976544;28;20101;-85
2022/12/04 00:28:13;;;;;;;94.07;50.22;;;;;;;-0.29;100.00;66748.13;4989086;28;20042;-85
2022/12/04 00:30:43;;;;;;;92.25;51.80;;;;;;;-0.30;100.00;66747.00;5001867;28;20445;-85
2022/12/04 00:33:08;;;;;;;92.65;46.95;;;;;;;-0.32;100.00;66747.94;4974180;28;20406;-85
2022/12/04 00:35:34;;;;;;;95.95;51.67;;;;;;;;;;4967667;28;20043;-85
2022/12/04 00:37:59;;;;;;;91.88;49.08;;;;;;;-0.29;100.00;66751.31;4969368;28;20069;-85
2022/12/04 00:40:24;;;;;;;89.75;44.30;;;;;;;-0.31;100.00;66745.91;4968664;28;20178;-85
2022/12/04 00:42:50;;;;;;;93.18;47.65;;;;;;;-0.31;100.00;66746.47;4965620;28;20042;-86
2022/12/04 00:45:15;;;;;;;96.00;50.78;;;;;;;;;;4963057;28;20499;-85
2022/12/04 00:47:40;;;;;;;87.38;42.78;;;;;;;-0.35;100.00;66747.19;4968363;28;20145;-85
2022/12/04 00:50:06;;;;;;;95.35;52.88;;;;;;;-0.35;100.00;66741.94;4969712;28;20042;-86
2022/12/04 00:52:32;;;;;;;96.07;51.78;;;;;;;-0.32;100.00;66745.31;4977515;28;20042;-85
2022/12/04 00:54:57;;;;;;;96.75;53.42;;;;;;;-0.30;100.00;66747.56;4973290;28;20057;-85
2022/12/04 00:57:23;;;;;;;98.22;53.05;;;;;;;-0.31;100.00;66745.91;4968387;28;20046;-86
2022/12/04 00:59:48;;;;;;;96.38;51.05;;;;;;;-0.30;100.00;66747.00;4984234;28;20110;-85
2022/12/04 01:02:13;;;;;;;101.75;50.08;;;;;;;-0.33;100.00;66746.81;4968660;28;20410;-85
2022/12/04 01:04:39;;;;;;;88.90;40.83;;;;;;;-0.32;100.00;66747.94;4962829;28;20110;-85
2022/12/04 01:07:04;;;;;;;90.63;47.25;;;;;;;-0.33;100.00;66746.81;4988990;28;20051;-85
2022/12/04 01:09:30;;;;;;;98.10;49.30;;;;;;;-0.30;100.00;66742.34;4973366;28;20707;-85
2022/12/04 01:11:55;;;;;;;98.63;51.92;;;;;;;-0.31;100.00;66745.91;4965966;28;20126;-85
2022/12/04 01:14:21;;;;;;;89.32;39.67;;;;;;;;;;4966672;28;20138;-85
2022/12/04 01:16:46;;;;;;;99.53;54.97;;;;;;;-0.33;100.00;66746.81;4965687;28;20058;-86
2022/12/04 01:19:11;;;;;;;94.63;52.22;;;;;;;;;;4967995;28;20039;-85
2022/12/04 01:21:42;;;;;;;99.68;53.10;;;;;;;-0.34;100.00;66747.75;4967765;28;20042;-86
2022/12/04 01:24:07;;;;;;;99.40;52.35;;;;;;;;;;4960008;28;20110;-85
2022/12/04 01:26:33;;;;;;;89.20;45.78;;;;;;;-0.33;100.00;66746.81;4965309;28;20483;-85
2022/12/04 01:28:58;;;;;;;100.88;52.70;;;;;;;-0.34;100.00;66742.53;4986832;28;20057;-85
2022/12/04 01:31:24;;;;;;;94.65;52.65;;;;;;;-0.33;100.00;66748.88;4962536;28;20047;-85
2022/12/04 01:33:49;;;;;;;96.28;53.60;;;;;;;-0.35;100.00;66741.38;4967192;28;20131;-85
2022/12/04 01:36:19;;;;;;;102.53;54.42;;;;;;;-0.34;100.00;66747.75;4959449;28;20047;-85
2022/12/04 01:38:44;;;;;;;;;;;;;;;-0.31;100.00;66746.47;4963782;28;20065;-86
2022/12/04 01:41:11;;;;;;;100.10;52.22;;;;;;;-0.40;100.00;66736.34;4965766;28;19918;-85
2022/12/04 01:43:38;;;;;;;94.47;51.90;;;;;;;-0.42;100.00;66733.53;4966354;28;20042;-85
2022/12/04 01:46:04;;;;;;;90.50;50.67;;;;;;;-0.39;100.00;66740.06;4975924;28;20045;-85
2022/12/04 01:48:53;;;;;;;93.43;41.90;;;;;;;-0.34;100.00;66745.16;4965484;28;20482;-85
2022/12/04 01:51:21;;;;;;;94.97;52.78;;;;;;;;;;4951479;28;20130;-85
2022/12/04 01:53:52;;;;;;;92.53;50.55;;;;;;;-0.39;100.00;66740.06;4987238;28;20133;-85
2022/12/04 01:56:20;;;;;;;94.55;50.47;;;;;;;-0.38;100.00;66740.63;4986179;28;20053;-86
2022/12/04 01:58:51;;;;;;;94.18;49.25;;;;;;;-0.35;100.00;66744.56;4986656;28;20055;-86
2022/12/04 02:01:17;;;;;;;94.30;49.13;;;;;;;-0.35;100.00;66741.38;4948459;28;20162;-85
2022/12/04 02:03:42;;;;;;;94.30;48.67;;;;;;;-0.35;100.00;66741.94;4948275;28;20051;-85
2022/12/04 02:06:08;;;;;;;91.30;47.33;;;;;;;-0.35;100.00;66741.94;4957139;28;20035;-85
2022/12/04 02:08:34;;;;;;;90.93;45.75;;;;;;;-0.33;100.00;66744.19;4981137;28;20113;-85
2022/12/04 02:11:16;;;;;;;96.65;53.10;;;;;;;-0.35;100.00;66744.00;4964736;28;20407;-85
2022/12/04 02:13:54;;;;;;;88.70;47.08;;;;;;;-0.34;100.00;66743.09;4964490;28;20043;-85
2022/12/04 02:16:27;;;;;;;91.45;49.00;;;;;;;;;;4967731;28;20053;-85
2022/12/04 02:19:08;;;;;;;95.88;49.97;;;;;;;-0.38;100.00;66741.19;4967591;28;20454;-86
2022/12/04 02:21:37;;;;;;;98.20;52.10;;;;;;;-0.38;100.00;66741.19;4984353;28;20054;-86
2022/12/04 02:24:05;;;;;;;96.82;48.47;;;;;;;-0.40;100.00;66735.75;4965463;28;20049;-85
2022/12/04 02:26:52;;;;;;;92.30;52.77;;;;;;;-0.42;100.00;66734.09;4967239;28;20046;-86
2022/12/04 02:29:22;;;;;;;98.20;51.00;;;;;;;-0.41;100.00;66735.22;4966752;28;20050;-86
2022/12/04 02:32:01;;;;;;;94.68;47.35;;;;;;;-0.41;100.00;66735.22;4965238;28;20083;-86
2022/12/04 02:34:43;;;;;;;87.00;50.20;;;;;;;-0.41;100.00;66735.22;4976080;28;20510;-85
2022/12/04 02:37:20;;;;;;;93.03;51.50;;;;;;;-0.44;100.00;66731.84;4975058;28;20101;-85
2022/12/04 02:40:00;;;;;;;96.15;48.80;;;;;;;-0.40;100.00;66736.34;4965685;28;20143;-85
2022/12/04 02:42:37;;;;;;;87.20;43.17;;;;;;;;;;4976264;28;20047;-85
2022/12/04 02:45:11;;;;;;;81.82;40.83;;;;;;;-0.41;100.00;66735.22;4993082;28;20061;-85
2022/12/04 02:47:40;;;;;;;89.53;46.85;;;;;;;-0.42;100.00;66734.09;4971284;28;20039;-85
2022/12/04 02:50:11;;;;;;;88.78;43.30;;;;;;;-0.41;100.00;66737.81;4970443;28;20142;-85
2022/12/04 02:53:00;;;;;;;91.50;50.22;;;;;;;-0.42;100.00;66736.72;4969382;28;20565;-85
2022/12/04 02:55:28;;;;;;;94.32;52.88;;;;;;;;;;4975262;28;20042;-85
2022/12/04 02:58:01;;;;;;;86.97;47.40;;;;;;;-0.41;100.00;66735.22;4991416;28;20077;-85
2022/12/04 03:00:28;;;;;;;92.03;52.38;;;;;;;-0.44;100.00;66731.84;4975535;28;20046;-85
2022/12/04 03:03:01;;;;;;;91.32;52.40;;;;;;;-0.46;100.00;66730.16;4982607;28;20130;-85
2022/12/04 03:05:37;;;;;;;97.05;50.70;;;;;;;-0.39;100.00;66739.53;4972536;28;20046;-86
2022/12/04 03:08:42;;;;;;;90.13;48.08;;;;;;;-0.39;100.00;66736.91;4990313;28;20066;-85
2022/12/04 03:11:07;;;;;;;90.15;48.58;;;;;;;-0.46;100.00;66734.84;4983513;28;20043;-86
2022/12/04 03:13:46;;;;;;;90.43;50.53;;;;;;;-0.41;100.00;66735.22;4968237;28;20042;-85
2022/12/04 03:16:17;;;;;;;89.00;46.88;;;;;;;-0.39;100.00;66740.06;4968797;28;20634;-85
2022/12/04 03:18:53;;;;;;;92.45;53.33;;;;;;;-0.43;100.00;66732.97;4975962;28;20065;-86
2022/12/04 03:21:23;;;;;;;89.70;51.72;;;;;;;-0.43;100.00;66732.97;4968758;28;20058;-85
2022/12/04 03:24:12;;;;;;;88.63;49.53;;;;;;;-0.40;100.00;66738.97;4973192;28;20126;-86
2022/12/04 03:26:51;;;;;;;88.78;48.63;;;;;;;-0.41;100.00;66739.88;4954157;28;20119;-86
2022/12/04 03:29:35;;;;;;;94.80;53.33;;;;;;;-0.48;100.00;66732.56;4958867;28;20312;-86
2022/12/04 03:32:10;;;;;;;89.70;50.30;;;;;;;-0.46;100.00;66730.16;4969497;28;20117;-85
2022/12/04 03:35:01;;;;;;;89.88;51.63;;;;;;;-0.46;100.00;66729.59;4966869;28;20050;-86
2022/12/04 03:37:42;;;;;;;86.63;47.63;;;;;;;-0.46;100.00;66730.16;4962347;28;20137;-86
2022/12/04 03:40:23;;;;;;;85.80;49.33;;;;;;;-0.46;100.00;66729.59;4967405;28;20141;-85
2022/12/04 03:43:12;;;;;;;88.47;49.92;;;;;;;-0.46;100.00;66735.41;4958858;28;20051;-86
2022/12/04 03:45:50;;;;;;;;;;;;;;;-0.46;100.00;66732.78;4948428;28;20043;-85
2022/12/04 03:48:37;;;;;;;89.50;48.40;;;;;;;-0.51;100.00;66729.22;4991528;28;20417;-86
2022/12/04 03:51:30;;;;;;;89.75;49.50;;;;;;;-0.48;100.00;66729.97;4968132;28;20038;-86
2022/12/04 03:54:01;;;;;;;93.72;51.50;;;;;;;;;;4947869;28;20043;-86
2022/12/04 03:56:29;;;;;;;89.82;46.85;;;;;;;;;;4948942;28;20073;-85
2022/12/04 03:59:02;;;;;;;89.28;50.72;;;;;;;-0.43;100.00;66732.97;4947433;28;20047;-86
2022/12/04 04:01:37;;;;;;;78.80;40.08;;;;;;;-0.40;100.00;66735.75;4969066;28;20150;-86
2022/12/04 04:04:03;;;;;;;89.03;51.45;;;;;;;;;;4970267;28;20046;-86
2022/12/04 04:06:39;;;;;;;85.03;45.70;;;;;;;-0.41;100.00;66740.44;4988470;28;20058;-86
2022/12/04 04:09:11;;;;;;;85.35;45.13;;;;;;;-0.38;100.00;66738.03;4968820;28;20078;-86
2022/12/04 04:11:49;;;;;;;89.97;44.75;;;;;;;-0.37;100.00;66741.78;4970079;28;20117;-86
2022/12/04 04:25:41;;;;;;;86.20;48.22;;;;;;;;;;4968867;28;20081;-86
2022/12/04 04:28:27;;;;;;;90.63;48.60;;;;;;;-0.35;100.00;66741.94;4966688;28;20483;-85
2022/12/04 04:30:58;;;;;;;82.55;43.35;;;;;;;-0.35;100.00;66744.56;4952162;28;20448;-86
2022/12/04 04:33:23;;;;;;;77.78;43.00;;;;;;;;;;4983293;28;20039;-86
2022/12/04 04:36:03;;;;;;;86.50;49.70;;;;;;;-0.34;100.00;66745.16;4977626;28;20043;-86
2022/12/04 04:38:37;;;;;;;81.30;46.95;;;;;;;;;;4970068;28;20122;-86
2022/12/04 04:41:18;;;;;;;90.82;48.45;;;;;;;-0.31;100.00;66746.47;4969550;28;20038;-86
2022/12/04 04:43:54;;;;;;;81.22;45.53;;;;;;;-0.29;100.00;66751.31;4967732;28;20058;-86
2022/12/04 04:46:27;;;;;;;86.72;41.88;;;;;;;-0.31;100.00;66746.47;4966552;28;20063;-86
2022/12/04 04:48:58;;;;;;;83.57;40.55;;;;;;;-0.30;100.00;66742.34;4969090;28;20117;-86
2022/12/04 04:51:24;;;;;;;86.45;45.40;;;;;;;-0.29;100.00;66753.38;4970994;28;20414;-86
2022/12/04 04:53:52;;;;;;;77.03;35.03;;;;;;;;;;4948621;28;20290;-85
2022/12/04 04:56:19;;;;;;;84.07;42.47;;;;;;;-0.23;100.00;66760.13;4949210;28;20043;-86
2022/12/04 04:58:45;;;;;;;78.45;44.13;;;;;;;-0.27;100.00;66750.94;4966378;28;20153;-86
2022/12/04 05:01:13;;;;;;;77.28;39.95;;;;;;;-0.23;100.00;66754.91;4969704;28;20141;-86
2022/12/04 05:03:38;;;;;;;81.80;40.28;;;;;;;-0.23;100.00;66754.91;4969281;28;20039;-86
2022/12/04 05:06:05;;;;;;;80.53;45.60;;;;;;;-0.23;100.00;66760.13;4965542;28;20375;-86
2022/12/04 05:08:30;;;;;;;76.03;41.67;;;;;;;-0.22;100.00;66756.00;4967886;28;20506;-85
2022/12/04 05:10:55;;;;;;;83.75;43.63;;;;;;;-0.21;100.00;66756.56;4963069;28;20050;-86
2022/12/04 05:13:21;;;;;;;79.25;43.70;;;;;;;-0.21;100.00;66759.19;4969183;28;20039;-86
2022/12/04 05:15:57;;;;;;;74.70;35.38;;;;;;;-0.20;100.00;66758.25;4991036;28;20114;-86
2022/12/04 05:18:23;;;;;;;69.20;33.88;;;;;;;-0.19;100.00;66759.38;4947748;28;20053;-86
2022/12/04 05:20:48;;;;;;;79.38;44.55;;;;;;;-0.19;100.00;66758.81;4955901;28;20042;-86
2022/12/04 05:23:13;;;;;;;74.97;36.78;;;;;;;;;;4968226;28;20046;-86
2022/12/04 05:25:39;;;;;;;72.47;35.78;;;;;;;-0.18;100.00;66759.94;4987313;28;20405;-86
2022/12/04 05:28:04;;;;;;;80.10;43.13;;;;;;;;;;4960717;28;20403;-86
2022/12/04 05:30:29;;;;;;;76.13;35.78;;;;;;;-0.14;100.00;66765.00;4975001;28;20046;-85
2022/12/04 05:32:55;;;;;;;76.10;35.33;;;;;;;-0.14;100.00;66769.69;4965743;28;20566;-86
2022/12/04 05:35:20;;;;;;;72.03;37.47;;;;;;;-0.12;100.00;66769.31;4969741;28;20046;-86
2022/12/04 05:37:46;;;;;;;76.20;37.95;;;;;;;;;;4972774;28;20078;-86
2022/12/04 05:40:11;;;;;;;75.55;39.63;;;;;;;-0.12;100.00;66769.31;4960899;28;20057;-86
2022/12/04 05:42:37;;;;;;;68.13;35.42;;;;;;;-0.14;100.00;66769.69;4965174;28;20067;-86
2022/12/04 05:45:02;;;;;;;70.78;38.65;;;;;;;;;;4963946;28;20050;-86
2022/12/04 05:47:27;;;;;;;79.05;39.65;;;;;;;-0.11;100.00;66768.38;4967773;28;20116;-86
2022/12/04 05:49:53;;;;;;;72.20;33.22;;;;;;;-0.14;100.00;66764.44;4970436;28;20049;-86
2022/12/04 05:52:18;;;;;;;80.45;43.65;;;;;;;-0.14;100.00;66765.00;4974157;28;20059;-86
2022/12/04 05:54:43;;;;;;;80.15;44.00;;;;;;;-0.15;100.00;66763.31;4968179;28;20049;-86
2022/12/04 05:57:09;;;;;;;80.53;43.63;;;;;;;-0.16;100.00;66757.53;4969109;28;20498;-86
2022/12/04 05:59:34;;;;;;;75.70;42.15;;;;;;;-0.15;100.00;66766.47;4966733;28;20562;-86
2022/12/04 06:02:00;;;;;;;74.68;40.60;;;;;;;-0.17;100.00;66766.88;4964807;28;20049;-86
2022/12/04 06:04:25;;;;;;;83.45;45.33;;;;;;;;;;4967854;28;20478;-86
2022/12/04 06:06:52;;;;;;;76.70;36.17;;;;;;;-0.17;100.00;66763.69;4967340;28;20446;-86
2022/12/04 06:09:18;;;;;;;76.88;40.60;;;;;;;-0.17;100.00;66761.06;4963585;28;20129;-85
2022/12/04 06:11:43;;;;;;;80.28;43.42;;;;;;;-0.19;100.00;66759.38;4964335;28;20398;-86
2022/12/04 06:14:12;;;;;;;79.70;36.00;;;;;;;-0.20;100.00;66757.69;4968056;28;20066;-86
2022/12/04 06:16:40;;;;;;;87.90;44.58;;;;;;;-0.19;100.00;66764.63;4965015;28;20415;-85
2022/12/04 06:19:10;;;;;;;80.93;39.47;;;;;;;-0.18;100.00;66762.56;4979284;28;20185;-86
2022/12/04 06:21:36;;;;;;;82.18;46.72;;;;;;;;;;4964683;28;22771;-86
2022/12/04 06:24:03;;;;;;;76.88;37.28;;;;;;;-0.22;100.00;66755.44;4964127;28;20042;-86
2022/12/04 06:26:29;;;;;;;73.68;34.05;;;;;;;-0.24;100.00;66753.75;4961443;28;20046;-86
2022/12/04 06:28:57;;;;;;;84.30;46.05;;;;;;;;;;4970142;28;20035;-86
2022/12/04 06:31:25;;;;;;;77.75;41.88;;;;;;;-0.26;100.00;66752.09;4966359;28;20042;-86
2022/12/04 06:33:53;;;;;;;75.20;38.30;;;;;;;-0.22;100.00;66756.00;4965637;28;20093;-85
2022/12/04 06:36:20;;;;;;;82.18;42.55;;;;;;;-0.20;100.00;66760.31;4965544;28;20039;-86
2022/12/04 06:38:47;;;;;;;71.85;36.30;;;;;;;-0.18;100.00;66759.94;4972341;28;20051;-86
2022/12/04 06:41:15;;;;;;;77.82;38.05;;;;;;;-0.20;100.00;66760.31;4980802;28;20562;-86
2022/12/04 06:43:41;;;;;;;79.82;44.47;;;;;;;;;;4968305;28;20354;-86
2022/12/04 06:46:09;;;;;;;82.90;45.10;;;;;;;-0.22;100.00;66758.63;4966566;28;20062;-86
2022/12/04 06:48:35;;;;;;;76.00;44.28;;;;;;;-0.25;100.00;66753.19;4966271;28;20058;-86
2022/12/04 06:51:06;;;;;;;75.28;40.05;;;;;;;-0.21;100.00;66761.81;4980238;28;20061;-86
2022/12/04 06:53:32;;;;;;;73.20;40.42;;;;;;;-0.20;100.00;66757.69;4965398;28;20054;-86
2022/12/04 06:56:00;;;;;;;75.13;39.95;;;;;;;-0.20;100.00;66763.50;4967030;28;20122;-85
2022/12/04 06:58:26;;;;;;;74.32;40.90;;;;;;;-0.18;100.00;66760.50;4968489;28;20046;-86
2022/12/04 07:00:52;;;;;;;71.85;39.03;;;;;;;-0.20;100.00;66753.03;4971574;28;20042;-86
2022/12/04 07:03:18;;;;;;;73.60;36.67;;;;;;;;;;4964107;28;20038;-86
2022/12/04 07:05:43;;;;;;;75.50;40.63;;;;;;;-0.16;100.00;66764.81;4971404;28;20074;-86
2022/12/04 07:08:09;;;;;;;73.47;39.33;;;;;;;-0.16;100.00;66762.19;4967797;28;20113;-86
2022/12/04 07:10:35;;;;;;;68.63;33.53;;;;;;;;;;4965684;28;20047;-86
2022/12/04 07:13:00;;;;;;;73.05;39.50;;;;;;;-0.15;100.00;66763.88;4955425;28;20050;-86
2022/12/04 07:15:26;;;;;;;68.53;38.05;;;;;;;;;;4948365;28;20051;-86
2022/12/04 07:17:51;;;;;;;71.50;40.03;;;;;;;-0.18;100.00;66765.16;4947345;28;20075;-85
2022/12/04 07:20:16;;;;;;;63.55;29.00;;;;;;;;;;4984918;28;20070;-86
2022/12/04 07:22:41;;;;;;;69.22;40.67;;;;;;;;;;4964507;28;20507;-86
2022/12/04 07:25:07;;;;;;;69.55;34.47;;;;;;;-0.14;100.00;66767.06;4964989;28;20604;-85
2022/12/04 07:27:32;;;;;;;68.50;34.97;;;;;;;-0.11;100.00;66773.59;4959038;28;20071;-86
2022/12/04 07:29:58;;;;;;;63.92;33.97;;;;;;;-0.14;100.00;66764.44;4959844;28;20038;-86
2022/12/04 07:32:23;;;;;;;58.92;30.17;;;;;;;-0.12;100.00;66767.25;4970360;28;20039;-86
2022/12/04 07:34:48;;;;;;;58.30;28.45;;;;;;;-0.10;100.00;66769.50;4963792;28;20718;-86
2022/12/04 07:37:14;;;;;;;57.70;33.20;;;;;;;;;;4978103;28;20038;-85
2022/12/04 07:39:39;;;;;;;55.30;31.90;;;;;;;;;;4964526;28;20047;-86
2022/12/04 07:42:04;;;;;;;54.22;29.05;;;;;;;;;;4968994;28;20495;-86
2022/12/04 07:44:30;;;;;;;51.83;27.80;;;;;;;-0.10;100.00;66769.50;4965658;28;20098;-86
2022/12/04 07:46:56;;;;;;;50.25;26.55;;;;;;;-0.04;100.00;66775.69;4969126;28;20483;-86
2022/12/04 07:49:21;;;;;;;50.15;29.38;;;;;;;;;;4967613;28;20078;-86
2022/12/04 07:51:47;;;;;;;42.83;23.13;;;;;;;-0.04;100.00;66770.44;4968867;28;20081;-86
2022/12/04 07:54:12;;;;;;;41.72;21.27;;;;;;;-0.03;100.00;66772.16;4970311;28;20070;-86
2022/12/04 07:56:37;;;;;;;40.17;22.75;;;;;;;;;;4969433;28;20102;-85
2022/12/04 07:59:03;;;;;;;39.85;23.00;;;;;;;;;;4975910;28;20038;-86
2022/12/04 08:01:29;;;;;;;42.05;25.05;;;;;;;-0.01;100.00;66779.06;4968386;28;20047;-86
2022/12/04 08:03:55;;;;;;;33.70;17.10;;;;;;;0.00;100.00;66782.81;4958735;28;20054;-86
2022/12/04 08:06:23;;;;;;;35.55;19.38;;;;;;;0.02;100.00;66777.19;4967753;28;20047;-86
2022/12/04 08:08:49;;;;;;;40.97;20.60;;;;;;;;;;4966615;28;20058;-86
2022/12/04 08:11:17;;;;;;;37.35;19.27;;;;;;;0.05;100.00;66791.03;4969461;28;20058;-86
2022/12/04 08:13:43;;;;;;;36.50;18.60;;;;;;;0.06;100.00;66786.34;4965187;28;20038;-85
2022/12/04 08:16:10;;;;;;;37.40;21.50;;;;;;;0.06;100.00;66786.94;4971405;28;20062;-85
2022/12/04 08:18:35;;;;;;;33.60;18.20;;;;;;;0.08;100.00;66789.16;4977521;28;20445;-86
2022/12/04 08:21:10;;;;;;;38.08;21.83;;;;;;;0.08;100.00;66791.78;4969666;28;20049;-85
2022/12/04 08:23:38;;;;;;;34.65;18.95;;;;;;;0.09;100.00;66789.75;4974539;28;20049;-86
2022/12/04 08:26:04;;;;;;;36.00;20.47;;;;;;;0.09;100.00;66792.38;4962687;28;20129;-86
2022/12/04 08:28:30;;;;;;;36.25;20.38;;;;;;;0.09;100.00;66790.31;4963822;28;20034;-85
2022/12/04 08:31:02;;;;;;;35.33;20.60;;;;;;;0.12;100.00;66798.91;4973310;28;20042;-86
2022/12/04 08:33:27;;;;;;;30.60;15.15;;;;;;;0.13;100.00;66794.78;4969391;28;20093;-86
2022/12/04 08:35:53;;;;;;;31.13;15.85;;;;;;;0.14;100.00;66798.53;4965659;28;20051;-85
2022/12/04 08:38:18;;;;;;;32.70;20.05;;;;;;;0.17;100.00;66798.72;4971763;28;20053;-86
2022/12/04 08:40:43;;;;;;;31.70;16.50;;;;;;;0.17;100.00;66798.72;4967427;28;20057;-85
2022/12/04 08:43:08;;;;;;;35.63;22.38;;;;;;;;;;4968500;28;20122;-85
2022/12/04 08:45:34;;;;;;;30.50;18.00;;;;;;;0.22;100.00;66804.91;4972942;28;20081;-85
2022/12/04 08:47:59;;;;;;;32.25;17.88;;;;;;;0.25;100.00;66807.72;4951158;28;20043;-85
2022/12/04 08:50:24;;;;;;;31.52;18.02;;;;;;;;;;4963700;28;20528;-86
2022/12/04 08:52:50;;;;;;;32.13;18.55;;;;;;;0.25;100.00;66807.72;4966337;28;20046;-86
2022/12/04 08:55:15;;;;;;;30.38;18.60;;;;;;;0.26;100.00;66810.91;4949663;28;20051;-85
2022/12/04 08:57:40;;;;;;;32.05;19.80;;;;;;;0.28;100.00;66810.53;4947903;28;20046;-86
2022/12/04 09:00:06;;;;;;;33.08;19.55;;;;;;;0.33;100.00;66821.41;4964615;28;20055;-86
2022/12/04 09:02:32;;;;;;;31.52;20.25;;;;;;;0.32;100.00;66815.06;4968112;28;20125;-86
2022/12/04 09:04:57;;;;;;;32.55;19.30;;;;;;;0.35;100.00;66818.41;4964067;28;20471;-86
2022/12/04 09:07:22;;;;;;;30.48;18.35;;;;;;;;;;4976395;28;20030;-86
2022/12/04 09:09:47;;;;;;;28.05;14.68;;;;;;;;;;4956370;28;20046;-86
2022/12/04 09:12:13;;;;;;;32.88;18.80;;;;;;;;;;4949714;28;20412;-85
2022/12/04 09:14:38;;;;;;;27.15;17.75;;;;;;;0.39;100.00;66822.91;4963976;28;20050;-86
2022/12/04 09:17:03;;;;;;;25.92;15.63;;;;;;;0.39;100.00;66823.47;4980511;28;20097;-86
2022/12/04 09:19:30;;;;;;;30.58;19.63;;;;;;;;;;4953492;28;20480;-85
2022/12/04 09:21:55;;;;;;;31.77;18.08;;;;;;;0.43;100.00;66827.41;4969481;28;20545;-85
2022/12/04 09:24:20;;;;;;;30.70;18.55;;;;;;;0.45;100.00;66829.66;4968603;28;20047;-86
2022/12/04 09:26:46;;;;;;;31.25;17.92;;;;;;;0.45;100.00;66829.66;4967584;28;20077;-86
2022/12/04 09:29:11;;;;;;;33.03;20.95;;;;;;;0.50;100.00;66829.50;4963995;28;20038;-85
2022/12/04 09:31:37;;;;;;;34.60;20.77;;;;;;;0.51;100.00;66841.09;4967232;28;20133;-85
2022/12/04 09:34:02;;;;;;;32.47;20.08;;;;;;;0.51;100.00;66839.03;4979492;28;20067;-86
2022/12/04 09:36:27;;;;;;;31.52;20.80;;;;;;;;;;4965891;28;20292;-86
2022/12/04 09:38:53;;;;;;;31.58;20.45;;;;;;;0.51;100.00;66836.41;4959442;28;20135;-86
2022/12/04 09:41:22;;;;;;;35.75;22.42;;;;;;;0.50;100.00;66835.28;4986717;28;20524;-86
2022/12/04 09:43:50;;;;;;;48.80;28.02;;;;;;;0.51;100.00;66839.03;4963627;28;20510;-86
2022/12/04 09:46:31;;;;;;;33.72;20.13;;;;;;;0.54;100.00;66839.22;4969664;28;20093;-85
2022/12/04 09:48:57;;;;;;;31.63;20.25;;;;;;;;;;4957788;28;20047;-85
2022/12/04 09:51:25;;;;;;;32.00;20.98;;;;;;;0.55;100.00;66843.53;4961046;28;20046;-86
2022/12/04 09:53:56;;;;;;;32.20;21.13;;;;;;;0.57;100.00;66845.78;4964141;28;20038;-85
2022/12/04 09:56:24;;;;;;;29.65;21.10;;;;;;;;;;4956326;28;20404;-86
2022/12/04 09:59:15;;;;;;;29.90;16.80;;;;;;;0.57;100.00;66842.59;4969213;28;20238;-85
2022/12/04 10:01:41;;;;;;;33.70;18.30;;;;;;;0.59;100.00;66844.84;4965014;28;20055;-85
2022/12/04 10:04:09;;;;;;;30.75;20.73;;;;;;;0.56;100.00;66836.78;4966047;28;20034;-86
2022/12/04 10:06:37;;;;;;;32.43;17.80;;;;;;;;;;4964735;28;20089;-85
2022/12/04 10:09:23;;;;;;;33.93;18.93;;;;;;;0.59;100.00;66850.09;4971280;28;20030;-85
2022/12/04 10:12:06;;;;;;;31.42;21.90;;;;;;;0.60;100.00;66848.59;4967263;28;20414;-85
2022/12/04 10:14:56;;;;;;;35.03;21.33;;;;;;;0.57;100.00;66843.16;4957145;28;20487;-86
2022/12/04 10:17:43;;;;;;;;;;;;;;;0.56;100.00;66842.03;4955088;28;20042;-85
2022/12/04 10:20:24;;;;;;;30.98;20.63;;;;;;;0.49;100.00;66834.16;4953765;28;19918;-85
2022/12/04 10:23:18;;;;;;;32.45;20.70;;;;;;;0.52;100.00;66839.59;4948551;28;20047;-86
2022/12/04 10:25:43;;;;;;;35.88;20.52;;;;;;;;;;4967488;28;20126;-86
2022/12/04 10:28:23;;;;;;;30.55;18.92;;;;;;;0.61;100.00;66847.09;4967655;28;20125;-85
2022/12/04 10:30:52;;;;;;;34.03;19.25;;;;;;;0.62;100.00;66848.22;4968042;28;20047;-86
2022/12/04 10:33:21;;;;;;;31.38;21.20;;;;;;;0.63;100.00;66849.34;4968673;28;20133;-86
2022/12/04 10:35:50;;;;;;;30.33;17.80;;;;;;;;;;4965422;28;20150;-86
2022/12/04 10:38:28;;;;;;;32.35;18.48;;;;;;;;;;4968893;28;20050;-86
2022/12/04 10:41:01;;;;;;;29.15;15.27;;;;;;;0.68;100.00;66855.53;4968195;28;20050;-85
2022/12/04 10:43:44;;;;;;;32.10;21.35;;;;;;;0.74;100.00;66861.16;4967082;28;20490;-86
2022/12/04 10:46:27;;;;;;;30.67;18.20;;;;;;;0.73;100.00;66860.59;4966018;28;20074;-85
2022/12/04 10:48:58;;;;;;;30.90;19.17;;;;;;;0.73;100.00;66860.59;4964340;28;20058;-85
2022/12/04 10:51:24;;;;;;;30.88;18.60;;;;;;;;;;4979325;28;20046;-85
2022/12/04 10:53:50;;;;;;;28.17;18.98;;;;;;;0.77;100.00;66864.53;4965351;28;20039;-85
2022/12/04 10:56:22;;;;;;;28.67;18.55;;;;;;;0.77;100.00;66864.53;4967660;28;20046;-85
2022/12/04 10:58:59;;;;;;;29.70;18.48;;;;;;;0.78;100.00;66868.28;4970525;28;20125;-85
2022/12/04 11:01:26;;;;;;;28.67;17.85;;;;;;;0.78;100.00;66865.66;4957816;28;20055;-85
2022/12/04 11:04:05;;;;;;;32.53;21.30;;;;;;;0.81;100.00;66861.19;4952558;28;20039;-86
2022/12/04 11:06:30;;;;;;;29.60;16.33;;;;;;;;;;4962808;28;20043;-85
2022/12/04 11:08:56;;;;;;;30.10;17.90;;;;;;;;;;4971192;28;20074;-86
2022/12/04 11:11:31;;;;;;;29.92;18.13;;;;;;;0.83;100.00;66866.59;4959115;28;20039;-86
2022/12/04 11:14:12;;;;;;;26.20;17.33;;;;;;;0.85;100.00;66873.53;4955196;28;20129;-86
2022/12/04 11:16:39;;;;;;;27.83;16.77;;;;;;;;;;4969768;28;20070;-86
2022/12/04 11:19:23;;;;;;;29.02;18.98;;;;;;;0.85;100.00;66874.09;4963031;28;20042;-86
2022/12/04 11:21:50;;;;;;;29.33;18.63;;;;;;;0.85;100.00;66878.78;4968379;28;20438;-85
2022/12/04 11:24:27;;;;;;;26.83;14.88;;;;;;;0.86;100.00;66877.84;4953561;28;20050;-85
2022/12/04 11:26:53;;;;;;;25.67;16.90;;;;;;;;;;4954894;28;20126;-86
2022/12/04 11:29:25;;;;;;;32.47;21.00;;;;;;;0.93;100.00;66885.16;4969509;28;20090;-85
2022/12/04 11:31:53;;;;;;;27.55;16.40;;;;;;;0.96;100.00;66890.59;4959755;28;20050;-86
2022/12/04 11:34:20;;;;;;;30.98;16.27;;;;;;;;;;4966202;28;20091;-86
2022/12/04 11:36:52;;;;;;;29.85;18.52;;;;;;;0.94;100.00;66883.66;4965543;28;20049;-86
2022/12/04 11:39:19;;;;;;;28.77;18.60;;;;;;;;;;4971917;28;20060;-85
2022/12/04 11:41:44;;;;;;;34.40;20.30;;;;;;;;;;4958747;28;20062;-86
2022/12/04 11:44:24;;;;;;;30.38;18.60;;;;;;;0.96;100.00;66885.91;4955943;28;20130;-86
2022/12/04 11:46:54;;;;;;;25.13;15.45;;;;;;;0.93;100.00;66876.75;4961411;28;20055;-86
2022/12/04 11:49:21;;;;;;;31.90;18.98;;;;;;;;;;4961937;28;20035;-86
2022/12/04 11:51:52;;;;;;;30.00;16.70;;;;;;;0.96;100.00;66885.34;4968350;28;20414;-85
2022/12/04 11:54:23;;;;;;;33.10;22.45;;;;;;;0.96;100.00;66885.91;4950228;29;20078;-86
2022/12/04 11:56:58;;;;;;;36.22;24.13;;;;;;;0.97;100.00;66887.03;4966403;28;20043;-85
2022/12/04 11:59:43;;;;;;;31.15;17.85;;;;;;;0.98;100.00;66888.16;4975824;28;20130;-86
2022/12/04 12:02:29;;;;;;;35.58;20.23;;;;;;;0.98;100.00;66882.94;4957914;28;20059;-86
2022/12/04 12:05:00;;;;;;;29.77;17.95;;;;;;;0.97;100.00;66887.03;4951242;28;20058;-85
2022/12/04 12:07:57;;;;;;;34.40;22.08;;;;;;;0.97;100.00;66889.66;4969918;28;20050;-85